Time;durP1;ratioP1;P1;durP2;ratioP2;P2;SDS_P1;SDS_P2;PMS_P1;PMS_P2;Temp;Humidity;BMP_temperature;BMP_pressure;BME280_temperature;BME280_humidity;BME280_pressure;Samples;Min_cycle;Max_cycle;Signal;HPM_P1;HPM_P2
2023/06/03 00:01:33;;;;;;;;;12.25;9.50;;;;;17.10;49.26;101025.41;5072732;28;46015;-82
2023/06/03 00:07:21;;;;;;;;;13.75;11.75;;;;;17.01;50.01;101028.03;5074113;28;45486;-81
2023/06/03 00:09:46;;;;;;;;;14.75;12.75;;;;;16.96;50.31;101036.41;5073531;28;45659;-82
2023/06/03 00:12:11;;;;;;;;;10.00;8.50;;;;;16.92;50.87;101026.25;5073957;28;45691;-82
2023/06/03 00:14:40;;;;;;;;;14.75;11.50;;;;;16.84;50.79;101028.75;5072361;28;45745;-82
2023/06/03 00:17:05;;;;;;;;;14.00;11.50;;;;;16.83;51.06;101027.91;5074070;28;45774;-81
2023/06/03 00:19:31;;;;;;;;;12.50;11.00;;;;;16.80;51.21;101033.47;5072381;28;46322;-82
2023/06/03 00:22:00;;;;;;;;;12.75;12.25;;;;;16.74;51.99;101024.28;5074030;28;45924;-80
2023/06/03 00:24:25;;;;;;;;;11.25;10.50;;;;;16.69;51.92;101037.09;5072239;28;45798;-81
2023/06/03 00:26:54;;;;;;;;;15.25;13.25;;;;;16.64;51.84;101023.44;5073774;28;45587;-81
2023/06/03 00:29:19;;;;;;;;;10.50;10.25;;;;;16.64;51.81;101025.25;5073348;27;45763;-81
2023/06/03 00:31:45;;;;;;;;;14.50;12.25;;;;;16.61;51.81;101031.66;5074106;28;46542;-81
2023/06/03 00:37:32;;;;;;;;;14.25;12.25;;;;;16.56;52.81;101020.63;5071173;28;45647;-82
2023/06/03 00:39:57;;;;;;;;;16.00;14.75;;;;;16.53;52.72;101018.25;5072101;28;47436;-81
2023/06/03 00:42:23;;;;;;;;;15.00;13.50;;;;;16.52;52.77;101013.09;5075048;27;46108;-83
2023/06/03 00:44:48;;;;;;;;;14.25;12.75;;;;;16.51;52.93;101022.00;5077742;28;45701;-81
2023/06/03 00:47:18;;;;;;;;;14.50;13.00;;;;;16.48;52.52;101009.03;5078071;28;45710;-81
2023/06/03 00:53:07;;;;;;;;;14.75;13.75;;;;;16.43;53.27;101009.47;5076938;28;45760;-81
2023/06/03 00:55:34;;;;;;;;;12.50;10.50;;;;;16.43;53.15;101019.19;5077445;27;45534;-83
2023/06/03 00:58:00;;;;;;;;;14.00;13.00;;;;;16.42;53.07;101004.28;5077182;27;45618;-81
2023/06/03 01:00:25;;;;;;;;;17.75;15.00;;;;;16.41;53.30;101006.09;5077086;27;45606;-81
2023/06/03 01:02:50;;;;;;;;;15.25;15.00;;;;;16.40;53.30;100998.31;5077246;27;46009;-82
2023/06/03 01:05:16;;;;;;;;;15.50;14.75;;;;;16.43;53.32;100998.03;5077730;28;45601;-82
2023/06/03 01:07:56;;;;;;;;;15.00;13.00;;;;;16.43;53.36;101003.31;5076951;27;45756;-81
2023/06/03 01:10:27;;;;;;;;;15.25;14.50;;;;;16.43;53.51;100992.75;5076408;28;45647;-81
2023/06/03 01:13:24;;;;;;;;;15.75;14.75;;;;;16.38;53.80;100994.00;5076610;27;46186;-81
2023/06/03 01:15:53;;;;;;;;;16.00;13.00;;;;;16.40;53.51;100999.16;5065630;27;45841;-81
2023/06/03 01:18:19;;;;;;;;;16.25;15.00;;;;;16.39;53.59;100994.84;5091946;27;45938;-81
2023/06/03 01:20:48;;;;;;;;;18.75;17.25;;;;;16.38;53.62;100996.66;5076167;28;46690;-81
2023/06/03 01:23:23;;;;;;;;;16.25;15.25;;;;;16.37;54.05;100991.50;5075290;28;46048;-82
2023/06/03 01:25:53;;;;;;;;;15.00;14.00;;;;;16.35;54.10;100989.00;5076528;28;45713;-81
2023/06/03 01:28:20;;;;;;;;;17.75;15.25;;;;;16.33;54.02;100992.75;5076419;27;45516;-81
2023/06/03 01:30:46;;;;;;;;;19.00;16.25;;;;;16.32;54.17;100991.91;5077141;27;46484;-79
2023/06/03 01:33:12;;;;;;;;;16.50;14.25;;;;;16.29;54.50;100988.72;5098206;27;47910;-80
2023/06/03 01:35:39;;;;;;;;;17.50;16.25;;;;;16.30;54.55;100987.75;5081415;27;45571;-80
2023/06/03 01:38:06;;;;;;;;;20.50;16.25;;;;;16.29;54.36;100992.19;5078219;28;45728;-80
2023/06/03 01:40:33;;;;;;;;;20.50;18.75;;;;;16.25;54.51;100979.34;5076266;27;45572;-81
2023/06/03 01:42:59;;;;;;;;;21.00;18.25;;;;;16.23;54.53;100987.44;5076420;27;46073;-81
2023/06/03 01:45:24;;;;;;;;;17.00;14.75;;;;;16.21;54.49;100983.25;5076413;27;45895;-81
2023/06/03 01:47:50;;;;;;;;;20.00;15.00;;;;;16.19;54.76;100986.06;5076136;28;45614;-81
2023/06/03 01:53:37;;;;;;;;;18.00;16.50;;;;;16.16;54.97;100990.75;5075217;28;45608;-81
2023/06/03 01:56:02;;;;;;;;;17.25;16.50;;;;;16.15;54.95;100989.06;5075718;28;45494;-82
2023/06/03 01:58:28;;;;;;;;;16.50;14.75;;;;;16.14;55.01;100992.72;5076123;27;45623;-81
2023/06/03 02:00:53;;;;;;;;;18.00;17.00;;;;;16.09;55.01;100982.50;5075561;27;45704;-81
2023/06/03 02:03:19;;;;;;;;;23.50;19.00;;;;;16.09;55.27;100984.31;5076006;27;45552;-81
2023/06/03 02:05:45;;;;;;;;;18.75;17.50;;;;;16.05;55.65;100980.28;5075655;27;45610;-82
2023/06/03 02:08:10;;;;;;;;;18.00;16.00;;;;;16.01;55.25;100982.38;5075992;27;45472;-81
2023/06/03 02:10:36;;;;;;;;;21.25;17.50;;;;;16.00;55.41;100987.78;5075435;27;46472;-81
2023/06/03 02:13:01;;;;;;;;;23.75;18.25;;;;;15.97;55.34;100982.78;5075686;27;45801;-83
2023/06/03 02:15:26;;;;;;;;;19.75;17.25;;;;;15.97;55.55;100982.78;5075636;27;45525;-81
2023/06/03 02:17:52;;;;;;;;;18.25;15.75;;;;;15.93;55.51;100975.09;5075770;27;45647;-82
2023/06/03 02:23:39;;;;;;;;;18.00;16.00;;;;;15.88;55.60;100972.03;5075261;28;45740;-81
2023/06/03 02:26:05;;;;;;;;;16.75;14.00;;;;;15.91;55.81;100984.16;5075400;28;45616;-81
2023/06/03 02:28:30;;;;;;;;;20.25;16.25;;;;;15.86;55.61;100968.69;5075631;28;45811;-81
2023/06/03 02:30:55;;;;;;;;;14.25;13.50;;;;;15.90;55.88;100971.91;5075161;27;46538;-81
2023/06/03 02:33:21;;;;;;;;;15.50;13.75;;;;;15.91;56.44;100974.41;5075297;27;46186;-82
2023/06/03 02:35:46;;;;;;;;;19.25;16.00;;;;;15.87;56.27;100980.91;5075334;28;45765;-81
2023/06/03 02:38:12;;;;;;;;;17.50;16.25;;;;;15.85;56.20;100974.94;5075271;27;45659;-83
2023/06/03 02:40:37;;;;;;;;;18.00;16.75;;;;;15.79;56.38;100966.72;5075212;28;45577;-80
2023/06/03 02:43:05;;;;;;;;;13.00;12.50;;;;;15.80;56.30;100978.97;5075606;27;45825;-84
2023/06/03 02:45:30;;;;;;;;;20.75;18.25;;;;;15.80;56.98;100973.69;5077306;28;45762;-85
2023/06/03 02:47:57;;;;;;;;;21.25;16.75;;;;;15.78;56.76;100979.09;5076629;28;45623;-83
2023/06/03 02:53:44;;;;;;;;;23.75;21.00;;;;;15.76;56.92;100977.56;5074689;28;45879;-83
2023/06/03 02:56:10;;;;;;;;;20.00;19.25;;;;;15.72;56.94;100976.97;5074898;28;45546;-82
2023/06/03 02:58:35;;;;;;;;;21.25;19.00;;;;;15.69;57.27;100971.13;5075111;27;45776;-83
2023/06/03 03:01:00;;;;;;;;;22.75;16.00;;;;;15.70;57.40;100970.16;5074717;27;45689;-83
2023/06/03 03:03:26;;;;;;;;;20.50;16.50;;;;;15.67;57.12;100979.19;5073355;28;46639;-84
2023/06/03 03:05:54;;;;;;;;;21.50;19.00;;;;;15.62;57.77;100984.03;5072311;28;45768;-83
2023/06/03 03:08:21;;;;;;;;;21.00;18.00;;;;;15.57;57.60;100978.31;5075249;27;45582;-83
2023/06/03 03:10:46;;;;;;;;;17.25;15.75;;;;;15.56;57.78;100973.16;5074803;27;45670;-83
2023/06/03 03:13:11;;;;;;;;;21.50;18.25;;;;;15.53;57.83;100975.09;5074826;27;45896;-83
2023/06/03 03:15:37;;;;;;;;;20.00;18.75;;;;;15.49;57.45;100967.53;5072943;28;45695;-83
2023/06/03 03:18:02;;;;;;;;;15.75;13.00;;;;;15.52;58.41;100973.41;5074720;27;45629;-83
2023/06/03 03:23:50;;;;;;;;;22.25;20.75;;;;;15.41;58.24;100970.00;5074475;28;46034;-82
2023/06/03 03:26:21;;;;;;;;;21.75;19.75;;;;;15.38;57.99;100972.91;5074549;27;45638;-82
2023/06/03 03:28:46;;;;;;;;;22.00;20.00;;;;;15.32;58.08;100968.16;5075682;27;45673;-84
2023/06/03 03:31:14;;;;;;;;;16.25;14.75;;;;;15.33;58.59;100975.09;5075067;27;45581;-83
2023/06/03 03:33:40;;;;;;;;;17.50;16.50;;;;;15.32;58.06;100976.06;5075135;27;46069;-83
2023/06/03 03:36:11;;;;;;;;;19.75;19.00;;;;;15.28;58.24;100972.81;5073076;28;45608;-80
2023/06/03 03:38:37;;;;;;;;;19.50;17.50;;;;;15.27;58.24;100971.19;5073181;27;45616;-81
2023/06/03 03:41:04;;;;;;;;;24.00;20.50;;;;;15.31;58.37;100975.22;5072781;28;45540;-81
2023/06/03 03:43:30;;;;;;;;;20.00;20.00;;;;;15.25;58.76;100966.97;5072916;28;46209;-83
2023/06/03 03:45:55;;;;;;;;;18.00;17.00;;;;;15.29;58.94;100982.44;5072821;28;45650;-82
2023/06/03 03:48:25;;;;;;;;;22.50;21.25;;;;;15.24;58.73;100979.34;5073973;27;45681;-82
2023/06/03 03:54:12;;;;;;;;;19.00;16.50;;;;;15.17;58.64;100980.00;5072303;28;45974;-83
2023/06/03 03:56:37;;;;;;;;;24.25;20.50;;;;;15.16;59.22;100979.16;5073046;27;45690;-82
2023/06/03 03:59:04;;;;;;;;;21.25;20.25;;;;;15.15;58.99;100982.75;5072788;28;45698;-82
2023/06/03 04:01:38;;;;;;;;;19.00;17.00;;;;;15.14;59.09;100991.66;5073224;27;46630;-83
2023/06/03 04:04:06;;;;;;;;;19.25;19.25;;;;;15.13;58.93;100998.72;5075525;27;46147;-81
2023/06/03 04:06:36;;;;;;;;;22.00;21.00;;;;;15.09;59.22;100991.19;5075126;27;45730;-82
2023/06/03 04:09:04;;;;;;;;;19.75;18.75;;;;;15.09;59.49;100991.19;5075838;27;45695;-83
2023/06/03 04:11:36;;;;;;;;;25.75;20.00;;;;;15.07;59.43;100988.69;5074518;27;45584;-82
2023/06/03 04:14:03;;;;;;;;;18.75;17.50;;;;;15.04;59.59;100985.47;5074629;27;45505;-82
2023/06/03 04:16:46;;;;;;;;;23.25;21.00;;;;;15.01;59.63;100986.53;5074480;27;45826;-82
2023/06/03 04:19:36;;;;;;;;;20.75;18.50;;;;;14.98;59.61;100983.34;5074275;28;45600;-83
2023/06/03 04:22:05;;;;;;;;;19.50;17.25;;;;;14.97;59.53;100981.66;5074690;27;45533;-83
2023/06/03 04:24:32;;;;;;;;;20.00;16.50;;;;;14.97;59.47;100979.84;5073655;27;46262;-83
2023/06/03 04:26:58;;;;;;;;;19.25;16.25;;;;;14.95;59.90;100984.41;5073660;27;45792;-82
2023/06/03 04:29:24;;;;;;;;;22.50;20.00;;;;;14.97;59.35;100989.56;5072887;27;45569;-81
2023/06/03 04:31:49;;;;;;;;;20.75;17.50;;;;;14.98;59.96;100997.38;5087952;27;48491;-81
2023/06/03 04:34:15;;;;;;;;;19.00;17.25;;;;;14.98;59.46;100986.81;5072803;28;46263;-82
2023/06/03 04:36:40;;;;;;;;;18.00;14.75;;;;;15.01;59.73;100994.47;5032368;27;1161599;-84
2023/06/03 04:39:06;;;;;;;;;21.75;19.25;;;;;15.00;59.85;100991.97;5072784;28;45589;-82
2023/06/03 04:41:35;;;;;;;;;23.50;18.50;;;;;15.00;59.54;101003.38;5074340;27;45571;-83
2023/06/03 04:44:01;;;;;;;;;23.50;19.50;;;;;14.94;59.45;100995.97;5074560;27;45577;-81
2023/06/03 04:46:29;;;;;;;;;20.50;19.75;;;;;14.95;59.81;101000.25;5072681;28;45646;-81
2023/06/03 04:48:57;;;;;;;;;28.25;22.25;;;;;14.92;60.14;100997.03;5074947;28;45574;-81
2023/06/03 04:54:44;;;;;;;;;20.50;18.50;;;;;14.96;60.35;101009.00;5073289;28;46142;-81
2023/06/03 04:57:09;;;;;;;;;21.75;20.25;;;;;14.95;60.13;101025.81;5074323;27;45658;-81
2023/06/03 04:59:43;;;;;;;;;20.50;19.75;;;;;14.93;60.29;101012.75;5073313;28;45659;-83
2023/06/03 05:02:09;;;;;;;;;22.00;20.50;;;;;14.90;60.47;101009.53;5071854;28;47532;-82
2023/06/03 05:04:34;;;;;;;;;19.50;18.50;;;;;14.92;60.18;101018.16;5073154;27;45713;-80
2023/06/03 05:07:00;;;;;;;;;21.75;18.75;;;;;14.92;60.30;101026.06;5071760;28;45744;-80
2023/06/03 05:09:26;;;;;;;;;24.25;19.00;;;;;14.89;60.43;101019.25;5073497;27;45588;-76
2023/06/03 05:11:51;;;;;;;;;25.00;19.50;;;;;14.91;60.61;101033.13;5071284;28;47516;-76
2023/06/03 05:14:17;;;;;;;;;20.75;17.75;;;;;14.89;60.33;101021.88;5072921;28;45909;-77
2023/06/03 05:16:42;;;;;;;;;17.25;15.50;;;;;14.90;60.36;101035.91;5072738;27;45541;-79
2023/06/03 05:19:08;;;;;;;;;22.25;21.00;;;;;14.91;60.28;101025.22;5072943;28;45734;-76
2023/06/03 05:24:55;;;;;;;;;21.25;19.00;;;;;14.96;60.58;101022.19;5072690;28;46202;-79
2023/06/03 05:27:20;;;;;;;;;24.00;19.00;;;;;14.95;60.48;101020.53;5072756;27;45599;-78
2023/06/03 05:29:46;;;;;;;;;20.50;18.50;;;;;14.96;60.16;101020.41;5075587;28;45776;-78
2023/06/03 05:32:11;;;;;;;;;22.00;19.00;;;;;14.95;59.99;101013.44;5076053;28;45672;-77
2023/06/03 05:34:36;;;;;;;;;22.50;18.00;;;;;14.98;60.33;101021.13;5076122;28;45651;-77
2023/06/03 05:37:02;;;;;;;;;20.50;18.25;;;;;15.00;60.07;101019.19;5075787;28;45746;-77
2023/06/03 05:39:27;;;;;;;;;19.00;17.00;;;;;15.02;60.09;101009.34;5076096;28;45786;-78
2023/06/03 05:41:53;;;;;;;;;25.00;20.75;;;;;15.03;60.04;101018.09;5076219;28;46330;-77
2023/06/03 05:44:18;;;;;;;;;25.25;22.75;;;;;15.05;60.05;101014.38;5074536;28;47229;-78
2023/06/03 05:46:43;;;;;;;;;22.75;20.50;;;;;15.08;59.83;101010.63;5075930;27;45469;-77
2023/06/03 05:49:09;;;;;;;;;21.00;20.00;;;;;15.06;60.21;101015.22;5075962;28;45549;-77
2023/06/03 05:54:56;;;;;;;;;28.50;21.25;;;;;15.13;60.18;101021.63;5075725;28;46189;-77
2023/06/03 05:57:21;;;;;;;;;22.00;21.25;;;;;15.13;60.27;101022.47;5075847;28;45573;-77
2023/06/03 05:59:47;;;;;;;;;16.75;14.75;;;;;15.13;60.05;101022.47;5075899;28;45586;-77
2023/06/03 06:02:12;;;;;;;;;21.50;21.00;;;;;15.18;59.98;101023.88;5075787;28;45561;-78
2023/06/03 06:04:38;;;;;;;;;23.00;19.25;;;;;15.19;60.03;101034.31;5074156;28;47398;-77
2023/06/03 06:10:25;;;;;;;;;23.50;18.00;;;;;15.20;60.14;101033.38;5075228;28;45662;-77
2023/06/03 06:12:50;;;;;;;;;19.75;19.50;;;;;15.23;59.78;101042.81;5075665;28;45570;-77
2023/06/03 06:15:16;;;;;;;;;21.25;18.00;;;;;15.23;59.85;101034.91;5075538;28;45679;-79
2023/06/03 06:17:45;;;;;;;;;18.50;16.25;;;;;15.25;59.88;101033.81;5074142;28;45783;-76
2023/06/03 06:20:11;;;;;;;;;25.75;20.75;;;;;15.28;59.92;101032.72;5075376;27;45712;-76
2023/06/03 06:22:36;;;;;;;;;18.75;18.25;;;;;15.30;59.69;101036.06;5075601;27;45661;-77
2023/06/03 06:25:09;;;;;;;;;21.50;20.25;;;;;15.31;59.67;101037.75;5075653;27;46209;-77
2023/06/03 06:27:34;;;;;;;;;21.50;16.75;;;;;15.31;59.52;101033.31;5075912;27;45437;-77
2023/06/03 06:30:01;;;;;;;;;21.50;19.75;;;;;15.35;59.31;101042.63;5075743;28;45637;-78
2023/06/03 06:32:27;;;;;;;;;20.25;18.50;;;;;15.40;59.36;101035.16;5075347;28;46939;-77
2023/06/03 06:34:53;;;;;;;;;19.50;18.00;;;;;15.43;59.10;101034.91;5075293;27;46594;-79
2023/06/03 06:41:21;;;;;;;;;19.75;16.50;;;;;15.50;58.91;101036.06;5069554;28;45814;-80
2023/06/03 06:43:47;;;;;;;;;18.00;15.75;;;;;15.51;59.14;101040.41;5075487;27;46555;-79
2023/06/03 06:46:12;;;;;;;;;17.75;15.75;;;;;15.55;59.17;101030.41;5075044;27;45897;-79
2023/06/03 06:48:39;;;;;;;;;15.50;13.75;;;;;15.59;58.94;101029.19;5075385;28;45654;-82
2023/06/03 06:51:06;;;;;;;;;19.75;18.00;;;;;15.63;58.79;101043.81;5075481;28;45829;-80
2023/06/03 06:53:34;;;;;;;;;21.00;16.50;;;;;15.65;58.66;101044.53;5075921;28;46338;-80
2023/06/03 06:56:09;;;;;;;;;19.00;15.00;;;;;15.65;58.73;101038.41;5075741;27;45583;-77
2023/06/03 06:58:37;;;;;;;;;22.75;16.50;;;;;15.67;58.51;101033.81;5074486;27;45600;-78
2023/06/03 07:01:05;;;;;;;;;22.00;18.50;;;;;15.74;58.54;101040.25;5074287;28;45604;-80
2023/06/03 07:03:31;;;;;;;;;15.75;13.75;;;;;15.74;58.34;101035.81;5075364;27;46739;-86
2023/06/03 07:05:57;;;;;;;;;24.50;19.50;;;;;15.80;58.38;101037.09;5073085;28;47821;-84
2023/06/03 07:08:23;;;;;;;;;14.25;14.00;;;;;15.83;58.09;101039.44;5075701;27;45897;-86
2023/06/03 07:10:49;;;;;;;;;19.25;17.00;;;;;15.86;58.02;101044.50;5075405;27;45735;-81
2023/06/03 07:13:15;;;;;;;;;18.75;15.75;;;;;15.90;57.96;101054.66;5076527;27;45651;-79
2023/06/03 07:15:41;;;;;;;;;17.25;13.75;;;;;15.93;58.01;101041.16;5073840;28;46387;-80
2023/06/03 07:18:09;;;;;;;;;17.25;15.75;;;;;15.98;58.03;101043.41;5074937;27;45687;-80
2023/06/03 07:26:45;;;;;;;;;15.75;15.25;;;;;16.12;57.74;101035.13;5074001;28;46188;-82
2023/06/03 07:29:11;;;;;;;;;16.00;14.75;;;;;16.17;57.73;101035.56;5076461;27;45614;-78
2023/06/03 07:31:36;;;;;;;;;16.75;15.25;;;;;16.21;57.49;101036.13;5076684;27;45692;-85
2023/06/03 07:34:02;;;;;;;;;17.25;15.50;;;;;16.29;57.14;101038.94;5074041;28;46418;-81
2023/06/03 07:36:28;;;;;;;;;16.50;15.50;;;;;16.31;57.48;101035.19;5074994;27;46025;-80
2023/06/03 07:39:06;;;;;;;;;20.50;17.00;;;;;16.38;56.96;101033.66;5076258;27;45594;-81
2023/06/03 07:41:40;;;;;;;;;19.25;16.00;;;;;16.46;56.65;101038.28;5076076;27;45636;-80
2023/06/03 07:44:07;;;;;;;;;18.00;15.75;;;;;16.52;56.99;101045.66;5076934;27;46274;-82
2023/06/03 07:46:37;;;;;;;;;20.00;15.75;;;;;16.57;56.95;101032.84;5076050;27;46112;-81
2023/06/03 07:49:04;;;;;;;;;17.50;16.00;;;;;16.60;56.66;101035.28;5073785;28;45556;-79
2023/06/03 07:51:30;;;;;;;;;17.00;16.25;;;;;16.66;56.32;101037.38;5074728;27;45702;-85
2023/06/03 07:53:55;;;;;;;;;14.50;13.25;;;;;16.70;56.26;101043.22;5075171;27;46478;-81
2023/06/03 07:56:21;;;;;;;;;16.25;16.25;;;;;16.72;56.18;101047.41;5074581;28;45650;-81
2023/06/03 07:58:47;;;;;;;;;19.75;15.50;;;;;16.79;56.05;101040.56;5072615;28;45684;-84
2023/06/03 08:01:16;;;;;;;;;15.25;14.50;;;;;16.82;55.90;101030.69;5074434;27;45603;-83
2023/06/03 08:03:41;;;;;;;;;17.75;14.75;;;;;16.87;56.09;101039.06;5074779;28;45714;-83
2023/06/03 08:06:08;;;;;;;;;15.75;15.00;;;;;16.91;55.95;101035.16;5074734;27;46005;-84
2023/06/03 08:12:01;;;;;;;;;15.00;14.00;;;;;17.07;55.91;101038.06;5077048;28;45506;-85
2023/06/03 08:14:30;;;;;;;;;15.00;14.25;;;;;17.11;55.18;101028.91;5075550;27;45448;-84
2023/06/03 08:17:01;;;;;;;;;16.75;14.75;;;;;17.14;55.12;101032.09;5079150;27;46454;-89
2023/06/03 08:19:26;;;;;;;;;13.00;12.00;;;;;17.18;55.17;101033.47;5075610;27;45875;-84
2023/06/03 08:21:52;;;;;;;;;15.50;14.50;;;;;17.23;55.24;101037.50;5074924;27;45497;-84
2023/06/03 08:24:17;;;;;;;;;17.75;14.00;;;;;17.28;54.93;101038.75;5072676;28;47744;-86
2023/06/03 08:26:45;;;;;;;;;16.25;16.25;;;;;17.35;54.89;101029.25;5072730;28;46198;-84
2023/06/03 08:29:10;;;;;;;;;14.25;13.00;;;;;17.39;54.58;101028.00;5076886;28;45618;-84
2023/06/03 08:31:36;;;;;;;;;16.00;15.00;;;;;17.48;54.38;101026.31;5077188;27;45704;-85
2023/06/03 08:34:02;;;;;;;;;17.50;14.75;;;;;17.56;54.32;101021.13;5076339;28;47348;-84
2023/06/03 08:36:28;;;;;;;;;16.00;15.75;;;;;17.61;53.67;101022.41;5078625;27;45990;-80
2023/06/03 08:42:22;;;;;;;;;15.25;13.75;;;;;17.71;53.86;101019.72;5073097;28;45826;-90
2023/06/03 08:44:47;;;;;;;;;15.25;13.25;;;;;17.80;53.60;101018.88;5083605;28;47574;-86
2023/06/03 08:47:15;;;;;;;;;16.00;12.67;;;;;17.86;53.54;101020.94;5076576;28;46031;-84
2023/06/03 08:49:53;;;;;;;;;13.50;12.50;;;;;17.90;52.96;101014.34;5078501;27;45823;-84
2023/06/03 08:52:20;;;;;;;;;12.00;12.00;;;;;18.01;52.70;101021.28;5076938;27;45762;-86
2023/06/03 08:54:47;;;;;;;;;17.75;14.25;;;;;18.07;52.83;101009.25;5077011;27;45592;-87
2023/06/03 08:57:19;;;;;;;;;16.25;14.50;;;;;18.14;52.53;101011.16;5076725;27;45957;-85
2023/06/03 08:59:47;;;;;;;;;14.00;13.00;;;;;18.22;52.90;101013.91;5077338;27;45505;-83
2023/06/03 09:02:12;;;;;;;;;13.50;12.75;;;;;18.27;52.66;101005.50;5075498;27;45863;-85
2023/06/03 09:04:38;;;;;;;;;11.00;11.00;;;;;18.36;52.69;101002.78;5079151;28;46540;-84
2023/06/03 09:07:05;;;;;;;;;17.25;14.25;;;;;18.45;52.00;101019.63;5080809;27;46259;-88
2023/06/03 09:12:54;;;;;;;;;15.00;12.50;;;;;18.59;52.13;101019.16;5079654;28;45684;-86
2023/06/03 09:15:20;;;;;;;;;14.00;13.00;;;;;18.63;51.97;101011.72;5079164;27;46196;-84
2023/06/03 09:17:46;;;;;;;;;13.00;12.00;;;;;18.70;51.63;101008.31;5079075;27;46322;-82
2023/06/03 09:20:12;;;;;;;;;14.00;12.75;;;;;18.76;51.32;101013.00;5078270;27;45656;-82
2023/06/03 09:22:41;;;;;;;;;14.25;13.25;;;;;18.81;51.45;101005.44;5078445;27;45648;-80
2023/06/03 09:25:07;;;;;;;;;14.00;11.00;;;;;18.84;50.97;101002.44;5077829;28;46615;-79
2023/06/03 09:27:32;;;;;;;;;13.50;11.25;;;;;18.90;50.98;101002.81;5078792;28;46305;-81
2023/06/03 09:30:03;;;;;;;;;11.25;11.00;;;;;18.97;50.10;101010.03;5079058;28;45716;-83
2023/06/03 09:32:35;;;;;;;;;13.00;11.50;;;;;19.01;50.27;101016.69;5079591;27;45450;-81
2023/06/03 09:35:04;;;;;;;;;15.00;12.00;;;;;19.10;50.58;101007.84;5077809;28;48807;-84
2023/06/03 09:37:31;;;;;;;;;15.25;13.00;;;;;19.17;49.86;101018.66;5078338;28;46004;-84
2023/06/03 09:43:18;;;;;;;;;9.25;9.00;;;;;19.31;48.99;101025.25;5068039;28;45688;-84
2023/06/03 09:45:44;;;;;;;;;11.25;10.25;;;;;19.34;48.96;101022.28;5079268;28;46600;-86
2023/06/03 09:48:09;;;;;;;;;12.75;12.50;;;;;19.37;49.00;101020.16;5079845;28;46166;-86
2023/06/03 09:50:47;;;;;;;;;8.25;7.50;;;;;19.43;48.66;101024.00;5079938;27;45456;-85
2023/06/03 09:53:19;;;;;;;;;11.50;10.75;;;;;19.51;48.38;101032.91;5078235;28;45662;-86
2023/06/03 09:55:44;;;;;;;;;14.00;11.00;;;;;19.55;48.38;101020.94;5077040;27;45530;-83
2023/06/03 09:58:10;;;;;;;;;11.50;9.50;;;;;19.60;48.26;101017.81;5077258;27;45502;-82
2023/06/03 10:00:47;;;;;;;;;11.75;11.00;;;;;19.66;48.60;101020.69;5076638;28;45709;-84
2023/06/03 10:03:13;;;;;;;;;11.50;9.75;;;;;19.71;48.19;101014.88;5076594;27;45763;-85
2023/06/03 10:05:39;;;;;;;;;13.00;12.25;;;;;19.79;47.90;101009.63;5076333;27;45757;-81
2023/06/03 10:08:05;;;;;;;;;12.00;11.00;;;;;19.82;47.65;100998.66;5074995;28;47028;-85
2023/06/03 10:10:31;;;;;;;;;11.25;10.00;;;;;19.91;47.23;100999.56;5074893;28;45711;-82
2023/06/03 10:12:57;;;;;;;;;14.25;11.75;;;;;19.98;47.64;101014.69;5077432;27;45597;-79
2023/06/03 10:15:37;;;;;;;;;12.00;12.00;;;;;20.04;47.56;101016.72;5076625;28;45419;-81
2023/06/03 10:18:06;;;;;;;;;9.00;8.50;;;;;20.09;47.36;101001.09;5076149;28;46057;-81
2023/06/03 10:20:37;;;;;;;;;10.50;9.25;;;;;20.19;47.18;101000.16;5079391;28;45658;-83
2023/06/03 10:23:04;;;;;;;;;13.00;12.00;;;;;20.24;46.48;101001.34;5078659;27;45765;-82
2023/06/03 10:28:52;;;;;;;;;13.50;13.00;;;;;20.38;46.17;100999.91;5077334;28;45725;-83
2023/06/03 10:31:21;;;;;;;;;11.50;11.00;;;;;20.45;45.90;101009.75;5076794;27;45837;-83
2023/06/03 10:33:48;;;;;;;;;13.00;11.00;;;;;20.50;45.54;101003.94;5077553;28;45527;-84
2023/06/03 10:36:16;;;;;;;;;12.75;11.25;;;;;20.52;44.52;101004.56;5092835;27;47907;-82
2023/06/03 10:38:51;;;;;;;;;13.00;11.00;;;;;20.56;44.76;100992.63;5080672;27;45892;-88
2023/06/03 10:41:19;;;;;;;;;11.25;10.75;;;;;20.53;44.64;100974.31;5080345;28;45477;-92
2023/06/03 10:43:45;;;;;;;;;9.25;9.00;;;;;20.62;44.22;100988.47;5077579;27;45748;-89
2023/06/03 10:46:12;;;;;;;;;12.00;10.25;;;;;20.63;43.88;100990.94;5078335;27;45954;-84
2023/06/03 10:48:41;;;;;;;;;11.50;10.00;;;;;20.65;44.14;100986.31;5091871;27;46909;-83
2023/06/03 10:51:31;;;;;;;;;11.75;11.00;;;;;20.73;44.13;100991.63;5077391;27;45661;-78
2023/06/03 10:54:38;;;;;;;;;11.00;10.50;;;;;20.80;43.98;100994.47;5076665;27;45778;-85
2023/06/03 10:57:08;;;;;;;;;14.00;12.00;;;;;20.85;43.87;100989.47;5074629;28;46799;-79
2023/06/03 10:59:45;;;;;;;;;9.75;9.00;;;;;20.94;42.72;100993.81;5073300;27;46445;-78
2023/06/03 11:02:12;;;;;;;;;9.75;9.75;;;;;20.97;42.51;100998.81;5073708;27;45832;-78
2023/06/03 11:04:39;;;;;;;;;12.00;11.00;;;;;21.00;42.98;100997.66;5074001;27;45500;-78
2023/06/03 11:07:06;;;;;;;;;11.25;11.25;;;;;21.06;43.07;100989.81;5073572;27;46304;-77
2023/06/03 11:09:41;;;;;;;;;13.75;12.50;;;;;21.11;43.11;100997.28;5073310;27;46076;-81
2023/06/03 11:12:13;;;;;;;;;9.25;9.00;;;;;21.14;43.25;100994.31;5073860;28;45630;-79
2023/06/03 11:14:50;;;;;;;;;11.00;10.00;;;;;21.19;43.01;100990.16;5075125;27;45566;-82
2023/06/03 11:17:19;;;;;;;;;11.00;10.75;;;;;21.21;43.12;100987.34;5074768;28;46521;-79
2023/06/03 11:19:45;;;;;;;;;12.75;11.50;;;;;21.25;43.07;100981.50;5075136;27;46067;-78
2023/06/03 11:22:12;;;;;;;;;12.75;12.25;;;;;21.27;42.86;100990.13;5073087;28;45717;-78
2023/06/03 11:24:37;;;;;;;;;12.50;11.75;;;;;21.33;42.59;100999.28;5074448;28;45646;-79
2023/06/03 11:27:24;;;;;;;;;11.50;10.00;;;;;21.37;42.49;100989.16;5073405;28;46602;-76
2023/06/03 11:29:50;;;;;;;;;9.75;9.00;;;;;21.39;42.27;100977.28;5074110;27;46121;-81
2023/06/03 11:32:32;;;;;;;;;13.50;11.75;;;;;21.40;42.41;100978.13;5074591;28;45639;-82
2023/06/03 11:35:03;;;;;;;;;10.00;9.50;;;;;21.47;42.15;100990.63;5075515;28;45522;-79
2023/06/03 11:37:41;;;;;;;;;8.25;7.00;;;;;21.52;42.20;100982.94;5074938;28;45577;-78
2023/06/03 11:40:16;;;;;;;;;12.25;11.75;;;;;21.59;42.40;100983.91;5074477;27;46300;-81
2023/06/03 11:42:50;;;;;;;;;12.50;11.25;;;;;21.65;41.60;100980.56;5074167;28;45680;-78
2023/06/03 11:45:24;;;;;;;;;13.50;11.75;;;;;21.70;41.28;100982.72;5075351;28;45611;-79
2023/06/03 11:48:08;;;;;;;;;11.75;11.00;;;;;21.73;41.48;100977.03;5076856;28;45669;-79
2023/06/03 11:50:57;;;;;;;;;12.75;11.25;;;;;21.75;41.33;100967.84;5075884;27;45880;-78
2023/06/03 11:53:31;;;;;;;;;13.50;11.75;;;;;21.82;41.12;100977.84;5074381;27;45804;-80
2023/06/03 11:56:04;;;;;;;;;12.75;10.75;;;;;21.84;40.06;100968.66;5074211;27;45525;-80
2023/06/03 11:58:30;;;;;;;;;10.50;10.00;;;;;21.88;40.31;100971.81;5073586;27;45865;-79
2023/06/03 12:01:17;;;;;;;;;10.25;9.75;;;;;21.94;40.00;100976.44;5073911;28;45495;-80
2023/06/03 12:03:57;;;;;;;;;12.25;11.75;;;;;21.97;40.36;100966.28;5073676;27;45854;-80
2023/06/03 12:06:22;;;;;;;;;10.75;10.75;;;;;22.00;39.98;100970.47;5074080;27;45631;-78
2023/06/03 12:08:48;;;;;;;;;11.25;10.50;;;;;22.04;40.05;100958.41;5073247;28;46574;-84
2023/06/03 12:11:27;;;;;;;;;10.00;9.50;;;;;22.09;40.22;100959.56;5071823;28;47497;-80
2023/06/03 12:13:53;;;;;;;;;10.75;10.00;;;;;22.12;40.04;100956.56;5074098;27;45519;-84
2023/06/03 12:16:34;;;;;;;;;13.50;11.75;;;;;22.23;40.21;100965.16;5091343;27;45610;-83
2023/06/03 12:19:03;;;;;;;;;12.50;11.25;;;;;22.27;39.84;100953.97;5076575;27;45567;-80
2023/06/03 12:21:29;;;;;;;;;13.75;12.50;;;;;22.35;39.38;100964.56;5077714;27;45524;-78